sensor_id;sensor_type;location;lat;lon;timestamp;temperature;humidity
4103;DHT22;2065;49.790;9.620;2023-01-06T00:02:18;14.80;66.70
4103;DHT22;2065;49.790;9.620;2023-01-06T00:04:45;14.70;67.00
4103;DHT22;2065;49.790;9.620;2023-01-06T00:07:12;14.70;67.00
4103;DHT22;2065;49.790;9.620;2023-01-06T00:09:39;14.80;66.80
4103;DHT22;2065;49.790;9.620;2023-01-06T00:12:07;14.80;67.00
4103;DHT22;2065;49.790;9.620;2023-01-06T00:14:35;14.60;67.80
4103;DHT22;2065;49.790;9.620;2023-01-06T00:17:02;14.70;67.50
4103;DHT22;2065;49.790;9.620;2023-01-06T00:19:29;14.60;67.50
4103;DHT22;2065;49.790;9.620;2023-01-06T00:21:56;14.50;68.60
4103;DHT22;2065;49.790;9.620;2023-01-06T00:24:23;14.40;68.90
4103;DHT22;2065;49.790;9.620;2023-01-06T00:26:50;14.20;69.40
4103;DHT22;2065;49.790;9.620;2023-01-06T00:29:17;14.40;69.10
4103;DHT22;2065;49.790;9.620;2023-01-06T00:31:45;14.30;69.60
4103;DHT22;2065;49.790;9.620;2023-01-06T00:34:12;14.40;69.30
4103;DHT22;2065;49.790;9.620;2023-01-06T00:36:39;14.70;68.70
4103;DHT22;2065;49.790;9.620;2023-01-06T00:39:11;14.70;68.10
4103;DHT22;2065;49.790;9.620;2023-01-06T00:41:39;14.70;68.50
4103;DHT22;2065;49.790;9.620;2023-01-06T00:44:24;14.70;68.40
4103;DHT22;2065;49.790;9.620;2023-01-06T00:46:52;14.70;68.90
4103;DHT22;2065;49.790;9.620;2023-01-06T00:49:20;14.80;68.50
4103;DHT22;2065;49.790;9.620;2023-01-06T00:51:47;14.60;69.10
4103;DHT22;2065;49.790;9.620;2023-01-06T00:54:14;14.50;69.70
4103;DHT22;2065;49.790;9.620;2023-01-06T00:56:43;14.40;70.20
4103;DHT22;2065;49.790;9.620;2023-01-06T00:59:12;14.30;70.80
4103;DHT22;2065;49.790;9.620;2023-01-06T01:01:40;14.50;70.40
4103;DHT22;2065;49.790;9.620;2023-01-06T01:04:09;14.30;70.70
4103;DHT22;2065;49.790;9.620;2023-01-06T01:06:36;14.20;71.40
4103;DHT22;2065;49.790;9.620;2023-01-06T01:09:05;14.50;70.60
4103;DHT22;2065;49.790;9.620;2023-01-06T01:11:33;14.70;69.40
4103;DHT22;2065;49.790;9.620;2023-01-06T01:14:19;14.90;68.80
4103;DHT22;2065;49.790;9.620;2023-01-06T01:16:46;15.00;68.20
4103;DHT22;2065;49.790;9.620;2023-01-06T01:19:14;15.10;68.30
4103;DHT22;2065;49.790;9.620;2023-01-06T01:21:41;15.20;67.70
4103;DHT22;2065;49.790;9.620;2023-01-06T01:24:09;15.20;67.40
4103;DHT22;2065;49.790;9.620;2023-01-06T01:26:36;15.20;67.30
4103;DHT22;2065;49.790;9.620;2023-01-06T01:29:04;15.40;67.20
4103;DHT22;2065;49.790;9.620;2023-01-06T01:31:31;15.40;66.60
4103;DHT22;2065;49.790;9.620;2023-01-06T01:33:58;15.30;66.90
4103;DHT22;2065;49.790;9.620;2023-01-06T01:36:28;15.30;66.90
4103;DHT22;2065;49.790;9.620;2023-01-06T01:38:55;15.10;67.50
4103;DHT22;2065;49.790;9.620;2023-01-06T01:41:23;15.20;67.50
4103;DHT22;2065;49.790;9.620;2023-01-06T01:43:51;15.20;67.40
4103;DHT22;2065;49.790;9.620;2023-01-06T01:46:22;15.00;68.10
4103;DHT22;2065;49.790;9.620;2023-01-06T01:48:51;15.10;67.80
4103;DHT22;2065;49.790;9.620;2023-01-06T01:51:23;15.20;67.20
4103;DHT22;2065;49.790;9.620;2023-01-06T01:53:57;15.00;67.90
4103;DHT22;2065;49.790;9.620;2023-01-06T01:56:29;14.90;68.10
4103;DHT22;2065;49.790;9.620;2023-01-06T01:58:58;14.90;68.00
4103;DHT22;2065;49.790;9.620;2023-01-06T02:01:27;14.90;68.30
4103;DHT22;2065;49.790;9.620;2023-01-06T02:03:54;15.00;67.80
4103;DHT22;2065;49.790;9.620;2023-01-06T02:06:23;15.10;67.60
4103;DHT22;2065;49.790;9.620;2023-01-06T02:08:58;15.10;67.30
4103;DHT22;2065;49.790;9.620;2023-01-06T02:11:28;15.00;67.60
4103;DHT22;2065;49.790;9.620;2023-01-06T02:14:02;15.00;67.50
4103;DHT22;2065;49.790;9.620;2023-01-06T02:16:42;15.10;67.30
4103;DHT22;2065;49.790;9.620;2023-01-06T02:22:15;15.10;67.60
4103;DHT22;2065;49.790;9.620;2023-01-06T02:25:10;15.20;67.50
4103;DHT22;2065;49.790;9.620;2023-01-06T02:28:15;15.30;67.20
4103;DHT22;2065;49.790;9.620;2023-01-06T02:33:47;15.20;67.10
4103;DHT22;2065;49.790;9.620;2023-01-06T02:36:27;14.90;68.20
4103;DHT22;2065;49.790;9.620;2023-01-06T02:39:04;15.00;67.80
4103;DHT22;2065;49.790;9.620;2023-01-06T02:41:41;14.90;68.20
4103;DHT22;2065;49.790;9.620;2023-01-06T02:44:16;14.90;68.50
4103;DHT22;2065;49.790;9.620;2023-01-06T02:46:59;14.90;68.60
4103;DHT22;2065;49.790;9.620;2023-01-06T02:49:40;14.90;68.80
4103;DHT22;2065;49.790;9.620;2023-01-06T02:52:13;14.90;68.20
4103;DHT22;2065;49.790;9.620;2023-01-06T02:54:50;14.70;69.20
4103;DHT22;2065;49.790;9.620;2023-01-06T02:57:22;14.70;69.40
4103;DHT22;2065;49.790;9.620;2023-01-06T02:59:56;14.60;69.60
4103;DHT22;2065;49.790;9.620;2023-01-06T03:02:26;14.70;69.20
4103;DHT22;2065;49.790;9.620;2023-01-06T03:04:59;14.70;69.00
4103;DHT22;2065;49.790;9.620;2023-01-06T03:07:30;15.00;68.40
4103;DHT22;2065;49.790;9.620;2023-01-06T03:10:00;15.10;67.80
4103;DHT22;2065;49.790;9.620;2023-01-06T03:12:34;15.10;67.60
4103;DHT22;2065;49.790;9.620;2023-01-06T03:15:03;15.10;67.60
4103;DHT22;2065;49.790;9.620;2023-01-06T03:17:30;15.00;68.30
4103;DHT22;2065;49.790;9.620;2023-01-06T03:19:59;14.90;68.20
4103;DHT22;2065;49.790;9.620;2023-01-06T03:22:27;14.50;70.00
4103;DHT22;2065;49.790;9.620;2023-01-06T03:24:55;14.40;70.80
4103;DHT22;2065;49.790;9.620;2023-01-06T03:27:25;14.50;70.70
4103;DHT22;2065;49.790;9.620;2023-01-06T03:29:53;14.30;71.90
4103;DHT22;2065;49.790;9.620;2023-01-06T03:32:23;14.20;72.40
4103;DHT22;2065;49.790;9.620;2023-01-06T03:35:06;14.20;73.20
4103;DHT22;2065;49.790;9.620;2023-01-06T03:37:46;14.50;72.00
4103;DHT22;2065;49.790;9.620;2023-01-06T03:40:27;14.70;71.10
4103;DHT22;2065;49.790;9.620;2023-01-06T03:43:04;14.70;70.40
4103;DHT22;2065;49.790;9.620;2023-01-06T03:45:58;14.60;70.80
4103;DHT22;2065;49.790;9.620;2023-01-06T03:48:39;14.50;71.10
4103;DHT22;2065;49.790;9.620;2023-01-06T03:51:26;14.60;71.30
4103;DHT22;2065;49.790;9.620;2023-01-06T03:53:59;14.70;71.10
4103;DHT22;2065;49.790;9.620;2023-01-06T03:56:29;14.60;71.10
4103;DHT22;2065;49.790;9.620;2023-01-06T03:59:02;14.70;71.00
4103;DHT22;2065;49.790;9.620;2023-01-06T04:01:31;14.90;70.40
4103;DHT22;2065;49.790;9.620;2023-01-06T04:04:00;14.90;70.20
4103;DHT22;2065;49.790;9.620;2023-01-06T04:06:29;14.90;69.90
4103;DHT22;2065;49.790;9.620;2023-01-06T04:08:58;14.90;70.10
4103;DHT22;2065;49.790;9.620;2023-01-06T04:11:25;15.00;69.70
4103;DHT22;2065;49.790;9.620;2023-01-06T04:14:10;15.00;69.60
4103;DHT22;2065;49.790;9.620;2023-01-06T04:16:37;15.10;69.50
4103;DHT22;2065;49.790;9.620;2023-01-06T04:19:04;15.00;69.50
4103;DHT22;2065;49.790;9.620;2023-01-06T04:21:33;15.20;69.20
4103;DHT22;2065;49.790;9.620;2023-01-06T04:24:00;15.30;68.40
4103;DHT22;2065;49.790;9.620;2023-01-06T04:26:27;15.20;68.90
4103;DHT22;2065;49.790;9.620;2023-01-06T04:28:54;15.30;68.70
4103;DHT22;2065;49.790;9.620;2023-01-06T04:31:21;15.20;68.50
4103;DHT22;2065;49.790;9.620;2023-01-06T04:33:50;15.20;69.10
4103;DHT22;2065;49.790;9.620;2023-01-06T04:36:18;15.10;68.80
4103;DHT22;2065;49.790;9.620;2023-01-06T04:38:50;15.10;69.40
4103;DHT22;2065;49.790;9.620;2023-01-06T04:41:17;15.00;69.70
4103;DHT22;2065;49.790;9.620;2023-01-06T04:43:44;14.80;71.20
4103;DHT22;2065;49.790;9.620;2023-01-06T04:46:10;14.60;71.10
4103;DHT22;2065;49.790;9.620;2023-01-06T04:48:37;14.70;71.10
4103;DHT22;2065;49.790;9.620;2023-01-06T04:51:06;14.70;71.30
4103;DHT22;2065;49.790;9.620;2023-01-06T04:53:34;14.50;72.00
4103;DHT22;2065;49.790;9.620;2023-01-06T04:56:04;14.70;71.70
4103;DHT22;2065;49.790;9.620;2023-01-06T04:58:31;14.80;71.10
4103;DHT22;2065;49.790;9.620;2023-01-06T05:00:59;15.00;70.50
4103;DHT22;2065;49.790;9.620;2023-01-06T05:03:26;15.10;69.60
4103;DHT22;2065;49.790;9.620;2023-01-06T05:05:53;15.10;69.80
4103;DHT22;2065;49.790;9.620;2023-01-06T05:08:20;14.80;70.50
4103;DHT22;2065;49.790;9.620;2023-01-06T05:10:47;14.80;70.70
4103;DHT22;2065;49.790;9.620;2023-01-06T05:13:15;14.90;70.70
4103;DHT22;2065;49.790;9.620;2023-01-06T05:15:42;14.80;70.20
4103;DHT22;2065;49.790;9.620;2023-01-06T05:18:10;14.70;70.20
4103;DHT22;2065;49.790;9.620;2023-01-06T05:20:38;14.90;70.20
4103;DHT22;2065;49.790;9.620;2023-01-06T05:23:04;14.90;70.00
4103;DHT22;2065;49.790;9.620;2023-01-06T05:25:31;14.90;69.70
4103;DHT22;2065;49.790;9.620;2023-01-06T05:27:59;14.90;69.50
4103;DHT22;2065;49.790;9.620;2023-01-06T05:30:27;15.10;69.00
4103;DHT22;2065;49.790;9.620;2023-01-06T05:32:54;15.10;68.70
4103;DHT22;2065;49.790;9.620;2023-01-06T05:35:21;15.00;68.90
4103;DHT22;2065;49.790;9.620;2023-01-06T05:37:48;15.00;69.00
4103;DHT22;2065;49.790;9.620;2023-01-06T05:40:15;15.10;68.90
4103;DHT22;2065;49.790;9.620;2023-01-06T05:42:42;15.00;68.60
4103;DHT22;2065;49.790;9.620;2023-01-06T05:45:10;15.10;68.40
4103;DHT22;2065;49.790;9.620;2023-01-06T05:47:38;15.30;67.90
4103;DHT22;2065;49.790;9.620;2023-01-06T05:50:06;15.30;67.20
4103;DHT22;2065;49.790;9.620;2023-01-06T05:52:33;15.50;67.20
4103;DHT22;2065;49.790;9.620;2023-01-06T05:55:00;15.50;66.80
4103;DHT22;2065;49.790;9.620;2023-01-06T05:57:27;15.50;66.70
4103;DHT22;2065;49.790;9.620;2023-01-06T05:59:54;15.60;66.60
4103;DHT22;2065;49.790;9.620;2023-01-06T06:02:21;15.70;66.30
4103;DHT22;2065;49.790;9.620;2023-01-06T06:04:49;15.80;66.10
4103;DHT22;2065;49.790;9.620;2023-01-06T06:07:16;15.80;65.70
4103;DHT22;2065;49.790;9.620;2023-01-06T06:09:43;15.80;65.60
4103;DHT22;2065;49.790;9.620;2023-01-06T06:12:11;15.80;65.40
4103;DHT22;2065;49.790;9.620;2023-01-06T06:14:38;15.80;65.20
4103;DHT22;2065;49.790;9.620;2023-01-06T06:17:05;15.70;65.30
4103;DHT22;2065;49.790;9.620;2023-01-06T06:19:32;15.60;65.60
4103;DHT22;2065;49.790;9.620;2023-01-06T06:22:00;15.50;66.60
4103;DHT22;2065;49.790;9.620;2023-01-06T06:24:27;15.60;66.50
4103;DHT22;2065;49.790;9.620;2023-01-06T06:26:54;15.70;66.00
4103;DHT22;2065;49.790;9.620;2023-01-06T06:29:21;15.80;65.60
4103;DHT22;2065;49.790;9.620;2023-01-06T06:31:48;15.80;65.20
4103;DHT22;2065;49.790;9.620;2023-01-06T06:34:15;15.80;66.30
4103;DHT22;2065;49.790;9.620;2023-01-06T06:36:42;15.70;65.80
4103;DHT22;2065;49.790;9.620;2023-01-06T06:39:10;15.60;66.50
4103;DHT22;2065;49.790;9.620;2023-01-06T06:41:37;15.70;65.70
4103;DHT22;2065;49.790;9.620;2023-01-06T06:44:04;15.80;65.60
4103;DHT22;2065;49.790;9.620;2023-01-06T06:46:31;15.90;65.30
4103;DHT22;2065;49.790;9.620;2023-01-06T06:48:58;15.80;65.30
4103;DHT22;2065;49.790;9.620;2023-01-06T06:51:25;15.70;65.70
4103;DHT22;2065;49.790;9.620;2023-01-06T06:53:52;15.60;65.70
4103;DHT22;2065;49.790;9.620;2023-01-06T06:56:20;15.50;66.20
4103;DHT22;2065;49.790;9.620;2023-01-06T06:58:48;15.30;66.60
4103;DHT22;2065;49.790;9.620;2023-01-06T07:01:16;15.20;67.10
4103;DHT22;2065;49.790;9.620;2023-01-06T07:03:44;15.30;67.30
4103;DHT22;2065;49.790;9.620;2023-01-06T07:06:13;15.20;67.50
4103;DHT22;2065;49.790;9.620;2023-01-06T07:08:42;15.30;67.30
4103;DHT22;2065;49.790;9.620;2023-01-06T07:11:09;15.30;67.00
4103;DHT22;2065;49.790;9.620;2023-01-06T07:13:38;15.30;66.80
4103;DHT22;2065;49.790;9.620;2023-01-06T07:16:06;15.20;66.90
4103;DHT22;2065;49.790;9.620;2023-01-06T07:18:33;15.10;67.10
4103;DHT22;2065;49.790;9.620;2023-01-06T07:21:00;15.10;67.30
4103;DHT22;2065;49.790;9.620;2023-01-06T07:23:27;15.00;67.80
4103;DHT22;2065;49.790;9.620;2023-01-06T07:25:56;14.70;68.10
4103;DHT22;2065;49.790;9.620;2023-01-06T07:28:24;14.80;68.80
4103;DHT22;2065;49.790;9.620;2023-01-06T07:30:52;14.80;68.60
4103;DHT22;2065;49.790;9.620;2023-01-06T07:33:20;14.80;69.10
4103;DHT22;2065;49.790;9.620;2023-01-06T07:35:51;14.80;68.90
4103;DHT22;2065;49.790;9.620;2023-01-06T07:38:18;14.60;70.20
4103;DHT22;2065;49.790;9.620;2023-01-06T07:40:45;14.50;70.50
4103;DHT22;2065;49.790;9.620;2023-01-06T07:43:12;14.60;70.50
4103;DHT22;2065;49.790;9.620;2023-01-06T07:45:39;14.60;70.50
4103;DHT22;2065;49.790;9.620;2023-01-06T07:48:08;14.70;70.30
4103;DHT22;2065;49.790;9.620;2023-01-06T07:50:35;14.70;69.90
4103;DHT22;2065;49.790;9.620;2023-01-06T07:53:02;14.90;69.50
4103;DHT22;2065;49.790;9.620;2023-01-06T07:55:29;15.10;69.20
4103;DHT22;2065;49.790;9.620;2023-01-06T07:57:56;15.10;68.70
4103;DHT22;2065;49.790;9.620;2023-01-06T08:00:24;15.20;68.20
4103;DHT22;2065;49.790;9.620;2023-01-06T08:02:51;15.30;68.30
4103;DHT22;2065;49.790;9.620;2023-01-06T08:05:20;15.40;67.80
4103;DHT22;2065;49.790;9.620;2023-01-06T08:07:47;15.60;67.50
4103;DHT22;2065;49.790;9.620;2023-01-06T08:10:14;15.70;67.20
4103;DHT22;2065;49.790;9.620;2023-01-06T08:12:41;15.80;66.90
4103;DHT22;2065;49.790;9.620;2023-01-06T08:15:08;15.80;66.80
4103;DHT22;2065;49.790;9.620;2023-01-06T08:17:35;15.80;67.00
4103;DHT22;2065;49.790;9.620;2023-01-06T08:20:03;15.90;67.50
4103;DHT22;2065;49.790;9.620;2023-01-06T08:22:31;15.90;66.40
4103;DHT22;2065;49.790;9.620;2023-01-06T08:24:58;15.80;66.70
4103;DHT22;2065;49.790;9.620;2023-01-06T08:27:26;15.80;66.50
4103;DHT22;2065;49.790;9.620;2023-01-06T08:29:53;15.90;66.50
4103;DHT22;2065;49.790;9.620;2023-01-06T08:32:20;15.90;66.20
4103;DHT22;2065;49.790;9.620;2023-01-06T08:34:47;15.90;66.30
4103;DHT22;2065;49.790;9.620;2023-01-06T08:37:14;15.70;66.90
4103;DHT22;2065;49.790;9.620;2023-01-06T08:39:42;15.60;66.90
4103;DHT22;2065;49.790;9.620;2023-01-06T08:42:10;15.30;68.20
4103;DHT22;2065;49.790;9.620;2023-01-06T08:44:37;15.40;67.90
4103;DHT22;2065;49.790;9.620;2023-01-06T08:47:04;15.50;67.60
4103;DHT22;2065;49.790;9.620;2023-01-06T08:49:31;15.30;68.10
4103;DHT22;2065;49.790;9.620;2023-01-06T08:51:58;15.00;69.10
4103;DHT22;2065;49.790;9.620;2023-01-06T08:54:26;14.80;68.60
4103;DHT22;2065;49.790;9.620;2023-01-06T08:56:54;14.50;68.00
4103;DHT22;2065;49.790;9.620;2023-01-06T08:59:21;13.90;67.90
4103;DHT22;2065;49.790;9.620;2023-01-06T09:01:48;13.60;69.30
4103;DHT22;2065;49.790;9.620;2023-01-06T09:04:16;13.50;69.80
4103;DHT22;2065;49.790;9.620;2023-01-06T09:06:43;13.50;70.00
4103;DHT22;2065;49.790;9.620;2023-01-06T09:09:12;13.50;70.60
4103;DHT22;2065;49.790;9.620;2023-01-06T09:11:40;13.40;70.30
4103;DHT22;2065;49.790;9.620;2023-01-06T09:14:09;13.20;69.10
4103;DHT22;2065;49.790;9.620;2023-01-06T09:16:36;13.10;69.80
4103;DHT22;2065;49.790;9.620;2023-01-06T09:19:03;13.20;69.70
4103;DHT22;2065;49.790;9.620;2023-01-06T09:21:30;13.30;69.60
4103;DHT22;2065;49.790;9.620;2023-01-06T09:23:57;13.30;69.20
4103;DHT22;2065;49.790;9.620;2023-01-06T09:26:24;13.30;69.40
4103;DHT22;2065;49.790;9.620;2023-01-06T09:28:51;13.30;69.40
4103;DHT22;2065;49.790;9.620;2023-01-06T09:31:19;13.50;68.80
4103;DHT22;2065;49.790;9.620;2023-01-06T09:33:46;13.70;68.60
4103;DHT22;2065;49.790;9.620;2023-01-06T09:36:13;14.00;67.60
4103;DHT22;2065;49.790;9.620;2023-01-06T09:38:40;14.20;67.80
4103;DHT22;2065;49.790;9.620;2023-01-06T09:44:06;14.50;66.10
4103;DHT22;2065;49.790;9.620;2023-01-06T09:46:41;14.50;65.60
4103;DHT22;2065;49.790;9.620;2023-01-06T09:49:19;14.60;65.60
4103;DHT22;2065;49.790;9.620;2023-01-06T09:51:47;14.60;65.10
4103;DHT22;2065;49.790;9.620;2023-01-06T09:54:17;14.70;65.40
4103;DHT22;2065;49.790;9.620;2023-01-06T09:56:50;14.90;65.40
4103;DHT22;2065;49.790;9.620;2023-01-06T09:59:22;15.10;65.00
4103;DHT22;2065;49.790;9.620;2023-01-06T10:01:51;15.10;64.50
4103;DHT22;2065;49.790;9.620;2023-01-06T10:04:24;14.70;64.60
4103;DHT22;2065;49.790;9.620;2023-01-06T10:07:00;14.70;64.60
4103;DHT22;2065;49.790;9.620;2023-01-06T10:09:39;14.70;65.30
4103;DHT22;2065;49.790;9.620;2023-01-06T10:12:18;14.80;64.50
4103;DHT22;2065;49.790;9.620;2023-01-06T10:14:56;14.80;64.30
4103;DHT22;2065;49.790;9.620;2023-01-06T10:17:57;14.40;64.20
4103;DHT22;2065;49.790;9.620;2023-01-06T10:20:43;14.30;64.10
4103;DHT22;2065;49.790;9.620;2023-01-06T10:23:25;14.40;64.20
4103;DHT22;2065;49.790;9.620;2023-01-06T10:25:59;14.30;63.70
4103;DHT22;2065;49.790;9.620;2023-01-06T10:28:33;14.30;64.20
4103;DHT22;2065;49.790;9.620;2023-01-06T10:31:03;14.40;63.90
4103;DHT22;2065;49.790;9.620;2023-01-06T10:33:34;14.30;63.70
4103;DHT22;2065;49.790;9.620;2023-01-06T10:36:08;14.30;62.30
4103;DHT22;2065;49.790;9.620;2023-01-06T10:38:38;14.30;62.10
4103;DHT22;2065;49.790;9.620;2023-01-06T10:41:12;14.50;63.10
4103;DHT22;2065;49.790;9.620;2023-01-06T10:43:41;14.70;62.50
4103;DHT22;2065;49.790;9.620;2023-01-06T10:46:08;14.70;61.00
4103;DHT22;2065;49.790;9.620;2023-01-06T10:48:37;14.60;60.80
4103;DHT22;2065;49.790;9.620;2023-01-06T10:51:29;14.60;60.10
4103;DHT22;2065;49.790;9.620;2023-01-06T10:54:00;14.60;60.10
4103;DHT22;2065;49.790;9.620;2023-01-06T10:56:28;14.50;60.60
4103;DHT22;2065;49.790;9.620;2023-01-06T10:58:57;14.50;59.80
4103;DHT22;2065;49.790;9.620;2023-01-06T11:01:27;14.50;60.80
4103;DHT22;2065;49.790;9.620;2023-01-06T11:04:06;14.50;60.50
4103;DHT22;2065;49.790;9.620;2023-01-06T11:06:38;14.60;60.30
4103;DHT22;2065;49.790;9.620;2023-01-06T11:09:07;14.50;60.30
4103;DHT22;2065;49.790;9.620;2023-01-06T11:11:44;14.30;61.00
4103;DHT22;2065;49.790;9.620;2023-01-06T11:14:16;14.20;61.30
4103;DHT22;2065;49.790;9.620;2023-01-06T11:16:52;14.40;60.90
4103;DHT22;2065;49.790;9.620;2023-01-06T11:19:31;14.50;60.60
4103;DHT22;2065;49.790;9.620;2023-01-06T11:21:58;14.50;60.60
4103;DHT22;2065;49.790;9.620;2023-01-06T11:24:26;14.50;60.20
4103;DHT22;2065;49.790;9.620;2023-01-06T11:26:55;14.40;60.00
4103;DHT22;2065;49.790;9.620;2023-01-06T11:29:28;14.40;60.40
4103;DHT22;2065;49.790;9.620;2023-01-06T11:31:56;14.50;60.90
4103;DHT22;2065;49.790;9.620;2023-01-06T11:34:26;14.60;60.90
4103;DHT22;2065;49.790;9.620;2023-01-06T11:36:55;14.40;60.40
4103;DHT22;2065;49.790;9.620;2023-01-06T11:39:28;14.70;60.70
4103;DHT22;2065;49.790;9.620;2023-01-06T11:42:02;14.90;60.90
4103;DHT22;2065;49.790;9.620;2023-01-06T11:44:32;15.10;60.50
4103;DHT22;2065;49.790;9.620;2023-01-06T11:47:02;15.20;60.10
4103;DHT22;2065;49.790;9.620;2023-01-06T11:49:34;15.30;60.10
4103;DHT22;2065;49.790;9.620;2023-01-06T11:52:04;15.10;60.10
4103;DHT22;2065;49.790;9.620;2023-01-06T11:54:35;15.00;60.30
4103;DHT22;2065;49.790;9.620;2023-01-06T11:57:22;15.00;60.60
4103;DHT22;2065;49.790;9.620;2023-01-06T12:00:13;14.90;60.20
4103;DHT22;2065;49.790;9.620;2023-01-06T12:02:48;14.90;60.40
4103;DHT22;2065;49.790;9.620;2023-01-06T12:05:21;14.70;60.50
4103;DHT22;2065;49.790;9.620;2023-01-06T12:07:51;14.70;60.80
4103;DHT22;2065;49.790;9.620;2023-01-06T12:10:23;14.80;60.50
4103;DHT22;2065;49.790;9.620;2023-01-06T12:12:51;14.70;61.20
4103;DHT22;2065;49.790;9.620;2023-01-06T12:15:18;14.70;61.20
4103;DHT22;2065;49.790;9.620;2023-01-06T12:17:49;14.70;61.00
4103;DHT22;2065;49.790;9.620;2023-01-06T12:20:21;14.80;60.80
4103;DHT22;2065;49.790;9.620;2023-01-06T12:22:50;15.00;61.00
4103;DHT22;2065;49.790;9.620;2023-01-06T12:25:21;14.90;60.10
4103;DHT22;2065;49.790;9.620;2023-01-06T12:27:52;14.80;60.10
4103;DHT22;2065;49.790;9.620;2023-01-06T12:30:25;14.70;60.10
4103;DHT22;2065;49.790;9.620;2023-01-06T12:32:57;14.70;60.80
4103;DHT22;2065;49.790;9.620;2023-01-06T12:35:28;14.70;61.00
4103;DHT22;2065;49.790;9.620;2023-01-06T12:38:00;14.70;60.70
4103;DHT22;2065;49.790;9.620;2023-01-06T12:40:33;14.70;61.00
4103;DHT22;2065;49.790;9.620;2023-01-06T12:43:10;14.90;60.60
4103;DHT22;2065;49.790;9.620;2023-01-06T12:45:45;15.00;60.40
4103;DHT22;2065;49.790;9.620;2023-01-06T12:48:19;15.20;60.80
4103;DHT22;2065;49.790;9.620;2023-01-06T12:50:52;15.30;60.30
4103;DHT22;2065;49.790;9.620;2023-01-06T12:53:24;15.40;60.40
4103;DHT22;2065;49.790;9.620;2023-01-06T12:56:01;15.50;60.50
4103;DHT22;2065;49.790;9.620;2023-01-06T12:58:35;15.60;60.20
4103;DHT22;2065;49.790;9.620;2023-01-06T13:01:09;15.60;60.10
4103;DHT22;2065;49.790;9.620;2023-01-06T13:04:16;15.70;60.10
4103;DHT22;2065;49.790;9.620;2023-01-06T13:07:01;15.70;59.80
4103;DHT22;2065;49.790;9.620;2023-01-06T13:09:39;15.60;59.40
4103;DHT22;2065;49.790;9.620;2023-01-06T13:12:33;15.60;59.30
4103;DHT22;2065;49.790;9.620;2023-01-06T13:15:08;15.70;59.10
4103;DHT22;2065;49.790;9.620;2023-01-06T13:17:42;15.30;58.30
4103;DHT22;2065;49.790;9.620;2023-01-06T13:20:16;15.00;59.60
4103;DHT22;2065;49.790;9.620;2023-01-06T13:22:55;15.00;60.10
4103;DHT22;2065;49.790;9.620;2023-01-06T13:25:52;14.90;59.80
4103;DHT22;2065;49.790;9.620;2023-01-06T13:28:28;14.90;59.60
4103;DHT22;2065;49.790;9.620;2023-01-06T13:31:07;14.70;59.40
4103;DHT22;2065;49.790;9.620;2023-01-06T13:34:03;14.90;60.10
4103;DHT22;2065;49.790;9.620;2023-01-06T13:36:58;14.70;60.10
4103;DHT22;2065;49.790;9.620;2023-01-06T13:39:34;14.90;59.80
4103;DHT22;2065;49.790;9.620;2023-01-06T13:42:06;15.10;59.50
4103;DHT22;2065;49.790;9.620;2023-01-06T13:44:36;15.10;59.40
4103;DHT22;2065;49.790;9.620;2023-01-06T13:47:06;15.10;59.00
4103;DHT22;2065;49.790;9.620;2023-01-06T13:49:37;14.70;59.00
4103;DHT22;2065;49.790;9.620;2023-01-06T13:52:07;14.60;59.70
4103;DHT22;2065;49.790;9.620;2023-01-06T13:55:03;14.50;60.20
4103;DHT22;2065;49.790;9.620;2023-01-06T13:57:34;14.50;59.60
4103;DHT22;2065;49.790;9.620;2023-01-06T14:00:17;14.40;59.80
4103;DHT22;2065;49.790;9.620;2023-01-06T14:03:21;14.40;59.80
4103;DHT22;2065;49.790;9.620;2023-01-06T14:05:58;14.60;60.20
4103;DHT22;2065;49.790;9.620;2023-01-06T14:08:31;14.70;59.70
4103;DHT22;2065;49.790;9.620;2023-01-06T14:11:20;14.50;59.20
4103;DHT22;2065;49.790;9.620;2023-01-06T14:13:52;14.50;59.80
4103;DHT22;2065;49.790;9.620;2023-01-06T14:16:21;14.40;59.50
4103;DHT22;2065;49.790;9.620;2023-01-06T14:18:49;14.40;59.90
4103;DHT22;2065;49.790;9.620;2023-01-06T14:21:21;14.30;59.90
4103;DHT22;2065;49.790;9.620;2023-01-06T14:23:53;14.30;59.40
4103;DHT22;2065;49.790;9.620;2023-01-06T14:26:43;14.20;59.70
4103;DHT22;2065;49.790;9.620;2023-01-06T14:35:25;14.10;59.70
4103;DHT22;2065;49.790;9.620;2023-01-06T14:37:57;14.30;59.60
4103;DHT22;2065;49.790;9.620;2023-01-06T14:40:26;14.10;59.70
4103;DHT22;2065;49.790;9.620;2023-01-06T14:42:56;14.00;60.10
4103;DHT22;2065;49.790;9.620;2023-01-06T14:45:26;14.10;60.10
4103;DHT22;2065;49.790;9.620;2023-01-06T14:47:56;14.20;59.90
4103;DHT22;2065;49.790;9.620;2023-01-06T14:50:25;14.00;60.10
4103;DHT22;2065;49.790;9.620;2023-01-06T14:52:56;14.00;60.20
4103;DHT22;2065;49.790;9.620;2023-01-06T14:55:27;14.20;59.90
4103;DHT22;2065;49.790;9.620;2023-01-06T14:57:56;14.30;59.50
4103;DHT22;2065;49.790;9.620;2023-01-06T15:00:25;14.40;59.30
4103;DHT22;2065;49.790;9.620;2023-01-06T15:02:56;14.50;59.80
4103;DHT22;2065;49.790;9.620;2023-01-06T15:05:26;14.50;59.30
4103;DHT22;2065;49.790;9.620;2023-01-06T15:07:59;14.50;59.20
4103;DHT22;2065;49.790;9.620;2023-01-06T15:10:28;14.50;59.00
4103;DHT22;2065;49.790;9.620;2023-01-06T15:12:56;14.50;59.20
4103;DHT22;2065;49.790;9.620;2023-01-06T15:15:25;14.40;59.30
4103;DHT22;2065;49.790;9.620;2023-01-06T15:17:54;14.50;59.40
4103;DHT22;2065;49.790;9.620;2023-01-06T15:20:26;14.50;59.10
4103;DHT22;2065;49.790;9.620;2023-01-06T15:22:54;14.50;59.00
4103;DHT22;2065;49.790;9.620;2023-01-06T15:25:23;14.40;59.10
4103;DHT22;2065;49.790;9.620;2023-01-06T15:27:51;14.30;59.10
4103;DHT22;2065;49.790;9.620;2023-01-06T15:30:23;14.40;59.40
4103;DHT22;2065;49.790;9.620;2023-01-06T15:32:51;14.50;59.00
4103;DHT22;2065;49.790;9.620;2023-01-06T15:35:22;14.30;59.20
4103;DHT22;2065;49.790;9.620;2023-01-06T15:37:57;14.30;59.50
4103;DHT22;2065;49.790;9.620;2023-01-06T15:40:25;14.30;59.90
4103;DHT22;2065;49.790;9.620;2023-01-06T15:42:53;14.50;59.30
4103;DHT22;2065;49.790;9.620;2023-01-06T15:45:27;14.50;59.10
4103;DHT22;2065;49.790;9.620;2023-01-06T15:47:57;14.60;59.10
4103;DHT22;2065;49.790;9.620;2023-01-06T15:50:28;14.70;58.70
4103;DHT22;2065;49.790;9.620;2023-01-06T15:52:57;14.70;58.60
4103;DHT22;2065;49.790;9.620;2023-01-06T15:55:27;14.60;58.80
4103;DHT22;2065;49.790;9.620;2023-01-06T15:57:59;14.60;58.80
4103;DHT22;2065;49.790;9.620;2023-01-06T16:00:29;14.60;58.70
4103;DHT22;2065;49.790;9.620;2023-01-06T16:02:58;14.70;58.90
4103;DHT22;2065;49.790;9.620;2023-01-06T16:05:37;14.50;58.70
4103;DHT22;2065;49.790;9.620;2023-01-06T16:08:17;14.40;58.80
4103;DHT22;2065;49.790;9.620;2023-01-06T16:10:45;14.50;58.70
4103;DHT22;2065;49.790;9.620;2023-01-06T16:13:23;14.50;58.80
4103;DHT22;2065;49.790;9.620;2023-01-06T16:15:54;14.60;58.90
4103;DHT22;2065;49.790;9.620;2023-01-06T16:18:27;14.60;58.80
4103;DHT22;2065;49.790;9.620;2023-01-06T16:20:55;14.80;58.50
4103;DHT22;2065;49.790;9.620;2023-01-06T16:23:32;14.70;58.20
4103;DHT22;2065;49.790;9.620;2023-01-06T16:26:05;14.50;58.70
4103;DHT22;2065;49.790;9.620;2023-01-06T16:28:35;14.70;58.20
4103;DHT22;2065;49.790;9.620;2023-01-06T16:31:05;14.80;58.20
4103;DHT22;2065;49.790;9.620;2023-01-06T16:33:38;14.80;58.00
4103;DHT22;2065;49.790;9.620;2023-01-06T16:36:13;14.80;58.10
4103;DHT22;2065;49.790;9.620;2023-01-06T16:38:41;14.80;58.20
4103;DHT22;2065;49.790;9.620;2023-01-06T16:41:13;14.80;58.30
4103;DHT22;2065;49.790;9.620;2023-01-06T16:43:41;15.00;58.20